Time;durP1;ratioP1;P1;durP2;ratioP2;P2;SDS_P1;SDS_P2;PMS_P1;PMS_P2;Temp;Humidity;BMP_temperature;BMP_pressure;BME280_temperature;BME280_humidity;BME280_pressure;Samples;Min_cycle;Max_cycle;Signal;HPM_P1;HPM_P2
2022/12/12 08:11:28;;;;;;;52.08;26.13;;;;;;;-3.35;100.00;95661.06;4857031;29;20456;-85
2022/12/12 08:13:54;;;;;;;45.93;23.03;;;;;;;-3.23;100.00;95652.63;4856606;29;20116;-88
2022/12/12 08:16:26;;;;;;;37.93;20.53;;;;;;;-3.07;100.00;95657.72;4865671;29;20041;-87
2022/12/12 08:18:54;;;;;;;36.27;20.33;;;;;;;-2.78;100.00;95658.56;4872364;29;20066;-89
2022/12/12 08:21:24;;;;;;;41.87;21.63;;;;;;;-2.65;100.00;95662.03;4852761;29;20477;-88
2022/12/12 08:24:02;;;;;;;44.23;22.83;;;;;;;-2.49;100.00;95654.19;4824386;29;20459;-88
2022/12/12 08:26:33;;;;;;;37.73;21.37;;;;;;;-2.55;100.00;95664.03;4820968;29;21072;-88
2022/12/12 08:29:00;;;;;;;35.27;20.43;;;;;;;-2.83;100.00;95667.47;4864644;29;20495;-90
2022/12/12 08:31:41;;;;;;;34.57;19.63;;;;;;;-3.42;100.00;95672.59;4855168;29;20514;-90
2022/12/12 08:34:11;;;;;;;33.87;20.30;;;;;;;-3.12;100.00;95678.56;4861025;29;20472;-90
2022/12/12 08:36:41;;;;;;;36.43;20.03;;;;;;;-3.28;100.00;95687.25;4843856;29;20483;-90
2022/12/12 08:39:16;;;;;;;35.30;18.47;;;;;;;-3.56;100.00;95689.63;4825734;29;20474;-89
2022/12/12 08:42:01;;;;;;;34.37;19.90;;;;;;;-3.37;100.00;95686.03;4823945;29;20470;-89
2022/12/12 08:44:27;;;;;;;40.03;20.63;;;;;;;-3.62;100.00;95690.00;4827048;29;23078;-89
2022/12/12 08:46:53;;;;;;;36.57;20.90;;;;;;;-3.79;100.00;95690.09;4856257;29;20511;-89
2022/12/12 08:49:18;;;;;;;37.13;21.17;;;;;;;-3.84;100.00;95699.81;4877654;29;20071;-88
2022/12/12 08:51:44;;;;;;;39.27;23.13;;;;;;;-3.71;100.00;95699.97;4873905;29;20112;-90
2022/12/12 08:54:13;;;;;;;34.67;20.70;;;;;;;-3.70;100.00;95701.63;4881730;29;20068;-89
2022/12/12 08:56:39;;;;;;;32.77;18.93;;;;;;;-3.84;100.00;95704.97;4884104;29;20587;-89
2022/12/12 08:59:07;;;;;;;34.17;19.43;;;;;;;-3.63;100.00;95702.94;4857715;29;20466;-89
2022/12/12 09:01:47;;;;;;;41.27;21.27;;;;;;;-3.61;100.00;95708.81;4860597;29;20515;-89
2022/12/12 09:04:13;;;;;;;36.80;20.80;;;;;;;-3.52;100.00;95716.03;4869999;29;20497;-90
2022/12/12 09:06:38;;;;;;;36.67;19.40;;;;;;;-3.52;100.00;95710.03;4871229;29;20462;-90
2022/12/12 09:09:04;;;;;;;36.03;20.57;;;;;;;-3.49;100.00;95708.09;4876447;29;20017;-90
2022/12/12 09:11:31;;;;;;;34.50;21.13;;;;;;;-3.42;100.00;95713.72;4870879;29;20520;-89
2022/12/12 09:14:07;;;;;;;32.30;18.93;;;;;;;-3.46;100.00;95715.66;4859825;29;20559;-90
2022/12/12 09:16:32;;;;;;;33.43;19.20;;;;;;;-3.35;100.00;95712.50;4860134;29;20489;-89
2022/12/12 09:18:58;;;;;;;37.00;21.47;;;;;;;-3.20;100.00;95706.47;4856190;29;20455;-89
2022/12/12 09:21:35;;;;;;;35.10;19.50;;;;;;;-3.11;100.00;95720.53;4848299;29;20047;-89
2022/12/12 09:24:08;;;;;;;35.17;19.87;;;;;;;-2.95;100.00;95715.31;4854125;29;20544;-90
2022/12/12 09:26:36;;;;;;;34.75;19.20;;;;;;;-3.05;100.00;95724.47;4869317;29;20481;-90
2022/12/12 09:29:02;;;;;;;30.50;17.70;;;;;;;-3.12;100.00;95729.16;4853307;29;20034;-89
2022/12/12 09:31:27;;;;;;;34.27;18.83;;;;;;;-3.20;100.00;95729.59;4853946;29;20447;-90
2022/12/12 09:33:54;;;;;;;35.17;18.90;;;;;;;-2.91;100.00;95727.09;4870948;29;20037;-90
2022/12/12 09:36:22;;;;;;;32.53;19.47;;;;;;;-2.71;100.00;95724.19;4876122;29;20041;-89
2022/12/12 09:38:47;;;;;;;33.00;18.47;;;;;;;-2.57;100.00;95720.78;4852455;29;20568;-89
2022/12/12 09:41:29;;;;;;;29.00;16.87;;;;;;;-2.57;100.00;95722.53;4866068;29;21019;-89
2022/12/12 09:44:00;;;;;;;33.53;18.10;;;;;;;-2.74;100.00;95718.38;4875297;29;20033;-89
2022/12/12 09:46:56;;;;;;;34.57;19.37;;;;;;;-2.51;100.00;95717.00;4847055;29;21012;-89
2022/12/12 09:49:32;;;;;;;32.87;18.57;;;;;;;-2.42;100.00;95724.97;4880235;29;20481;-89
2022/12/12 09:52:00;;;;;;;29.93;18.30;;;;;;;-2.41;100.00;95712.97;4866902;29;20470;-89
2022/12/12 09:54:27;;;;;;;30.60;17.57;;;;;;;-2.21;100.00;95702.28;4870070;29;20478;-89
2022/12/12 09:57:03;;;;;;;32.03;17.93;;;;;;;-2.04;100.00;95711.53;4864574;29;20948;-89
2022/12/12 09:59:55;;;;;;;28.53;16.23;;;;;;;-2.15;100.00;95712.19;4862047;29;20491;-89
2022/12/12 10:02:51;;;;;;;27.73;15.87;;;;;;;-1.78;100.00;95712.44;4876941;29;21194;-89
2022/12/12 10:05:35;;;;;;;28.70;17.03;;;;;;;-1.77;100.00;95703.00;4857956;29;20477;-89
2022/12/12 10:08:15;;;;;;;31.17;17.13;;;;;;;-1.87;100.00;95702.75;4861867;29;20466;-89
2022/12/12 10:10:44;;;;;;;31.07;16.63;;;;;;;-1.84;100.00;95705.13;4867110;29;20485;-89
2022/12/12 10:13:36;;;;;;;25.83;15.27;;;;;;;-1.96;100.00;95708.47;4863859;29;20482;-89
2022/12/12 10:16:13;;;;;;;36.63;19.10;;;;;;;-2.05;100.00;95698.72;4848266;29;21091;-90
2022/12/12 10:18:44;;;;;;;31.43;18.80;;;;;;;-2.17;100.00;95700.31;4866853;29;20484;-90
2022/12/12 10:21:29;;;;;;;30.50;16.40;;;;;;;-2.19;100.00;95695.25;4876587;29;20461;-89
2022/12/12 10:24:23;;;;;;;32.23;17.87;;;;;;;-2.04;100.00;95700.41;4827969;29;20467;-89
2022/12/12 10:26:48;;;;;;;42.25;24.27;;;;;;;-2.17;100.00;95698.56;4828138;29;20513;-88
2022/12/12 10:29:18;;;;;;;34.13;18.93;;;;;;;-2.12;100.00;95706.00;4830720;29;20120;-89
2022/12/12 10:32:22;;;;;;;36.50;22.83;;;;;;;-2.15;100.00;95695.88;4849233;29;20045;-87
2022/12/12 10:35:42;;;;;;;30.45;17.42;;;;;;;-2.17;100.00;95703.72;4886068;29;20491;-89
2022/12/12 10:38:27;;;;;;;28.63;16.80;;;;;;;-2.02;100.00;95698.53;4857490;29;20042;-89
2022/12/12 10:41:05;;;;;;;27.83;16.70;;;;;;;-1.98;100.00;95700.00;4873194;29;20477;-89
2022/12/12 10:43:49;;;;;;;25.33;15.70;;;;;;;-1.72;100.00;95696.59;4870304;29;21015;-88
2022/12/12 10:46:22;;;;;;;31.03;15.53;;;;;;;-1.51;100.00;95701.31;4850629;29;20504;-89
2022/12/12 10:48:50;;;;;;;26.40;15.50;;;;;;;-1.48;100.00;95706.28;4876379;29;20468;-89
2022/12/12 10:51:20;;;;;;;26.67;15.50;;;;;;;-1.44;100.00;95694.84;4868161;29;20473;-89
2022/12/12 10:53:51;;;;;;;26.70;15.90;;;;;;;-1.83;100.00;95701.63;4843157;29;20478;-89
2022/12/12 10:56:27;;;;;;;27.40;15.07;;;;;;;-1.81;100.00;95706.66;4864140;29;21041;-88
2022/12/12 10:58:58;;;;;;;25.97;13.77;;;;;;;-1.80;100.00;95704.00;4852690;29;20473;-88
2022/12/12 11:01:28;;;;;;;25.27;14.50;;;;;;;-1.94;100.00;95702.31;4863959;29;20482;-89
2022/12/12 11:03:56;;;;;;;27.13;14.47;;;;;;;-2.02;100.00;95696.78;4871965;29;20472;-89
2022/12/12 11:06:35;;;;;;;23.97;13.27;;;;;;;-1.82;100.00;95695.53;4866796;29;20483;-88
2022/12/12 11:09:19;;;;;;;30.50;15.13;;;;;;;-2.12;100.00;95693.13;4855763;29;20507;-88
2022/12/12 11:11:59;;;;;;;24.00;13.93;;;;;;;-2.32;100.00;95699.50;4860312;29;20469;-89
2022/12/12 11:15:00;;;;;;;23.77;13.53;;;;;;;-2.47;100.00;95715.91;4877234;29;20481;-89
2022/12/12 11:17:29;;;;;;;25.30;14.47;;;;;;;-2.42;100.00;95706.97;4829249;29;20512;-89
2022/12/12 11:19:57;;;;;;;22.30;13.27;;;;;;;-2.41;100.00;95707.81;4851651;29;20487;-88
2022/12/12 11:22:25;;;;;;;25.90;13.17;;;;;;;-2.30;100.00;95700.25;4842566;29;20498;-88
2022/12/12 11:24:53;;;;;;;26.73;14.70;;;;;;;-2.28;100.00;95695.00;4866754;29;20470;-88
2022/12/12 11:27:31;;;;;;;18.63;11.57;;;;;;;-2.90;100.00;95703.00;4859812;29;20506;-88
2022/12/12 11:30:06;;;;;;;23.43;12.00;;;;;;;-2.80;100.00;95698.97;4858903;29;21972;-89
2022/12/12 11:32:42;;;;;;;26.63;12.93;;;;;;;-2.40;100.00;95712.03;4862200;29;20485;-89
2022/12/12 11:35:41;;;;;;;24.40;13.83;;;;;;;-2.28;100.00;95706.16;4859460;29;21027;-89
2022/12/12 11:38:17;;;;;;;24.03;13.40;;;;;;;-2.37;100.00;95712.66;4847643;29;20549;-88
2022/12/12 11:40:44;;;;;;;22.43;12.83;;;;;;;-2.43;100.00;95710.47;4867505;29;21102;-89
2022/12/12 11:43:26;;;;;;;21.00;11.27;;;;;;;-2.16;100.00;95700.22;4861634;29;20560;-89
2022/12/12 11:46:20;;;;;;;22.53;12.10;;;;;;;-2.40;100.00;95701.72;4855022;29;20470;-89
2022/12/12 11:48:46;;;;;;;14.27;8.00;;;;;;;-2.20;100.00;95697.94;4871010;29;20524;-89
2022/12/12 11:51:13;;;;;;;19.77;11.00;;;;;;;-2.41;100.00;95697.50;4859368;29;20599;-89
2022/12/12 11:53:42;;;;;;;27.43;14.43;;;;;;;-2.34;100.00;95683.34;4873686;29;20112;-89
2022/12/12 11:56:26;;;;;;;18.03;10.77;;;;;;;-2.37;100.00;95676.63;4888529;29;20532;-89
2022/12/12 11:58:52;;;;;;;;;;;;;;;-2.15;100.00;95665.84;4861470;29;20565;-88
2022/12/12 12:01:54;;;;;;;23.50;11.37;;;;;;;-1.87;100.00;95671.81;4868714;29;19991;-89
2022/12/12 12:04:33;;;;;;;23.93;12.57;;;;;;;-1.73;100.00;95666.59;4856403;29;20370;-89
2022/12/12 12:07:14;;;;;;;31.90;17.63;;;;;;;-1.53;100.00;95670.47;4868910;29;20482;-88
2022/12/12 12:09:57;;;;;;;21.27;11.43;;;;;;;-0.87;100.00;95653.22;4819688;29;20979;-91
2022/12/12 12:13:12;;;;;;;;;;;;;;;;;;;;;
2022/12/12 12:16:21;;;;;;;18.87;11.13;;;;;;;0.09;100.00;95645.66;4831926;29;21150;-93
2022/12/12 12:20:12;;;;;;;;;;;;;;;;;;;;;
2022/12/12 12:23:20;;;;;;;28.23;16.60;;;;;;;0.39;100.00;95639.22;4842015;29;20447;-92
2022/12/12 12:26:08;;;;;;;19.90;11.47;;;;;;;0.01;100.00;95652.34;4833447;29;20514;-92
2022/12/12 12:29:00;;;;;;;19.73;11.60;;;;;;;-0.07;100.00;95652.84;4821023;29;20533;-93
2022/12/12 12:31:39;;;;;;;17.40;10.63;;;;;;;0.04;100.00;95657.28;4837122;29;20482;-93
2022/12/12 12:34:33;;;;;;;23.67;13.17;;;;;;;-0.13;100.00;95648.13;4854954;29;20506;-92
2022/12/12 12:37:11;;;;;;;18.83;11.70;;;;;;;-0.59;100.00;95653.91;4857643;29;20487;-92
2022/12/12 12:39:40;;;;;;;22.50;14.37;;;;;;;-0.77;100.00;95655.97;4843121;29;20181;-92
2022/12/12 12:42:30;;;;;;;16.67;9.67;;;;;;;-0.91;100.00;95649.16;4859675;29;21067;-92
2022/12/12 12:45:07;;;;;;;18.03;10.40;;;;;;;-0.83;100.00;95643.50;4858329;29;20562;-92
2022/12/12 12:47:38;;;;;;;20.83;11.57;;;;;;;-0.93;100.00;95645.06;4873991;29;20848;-92
2022/12/12 14:43:52;;;;;;;23.73;9.97;;;;;;;-2.49;100.00;95651.63;5079913;28;20549;-92
2022/12/12 15:03:33;;;;;;;20.73;11.20;;;;;;;-2.97;100.00;95658.00;5077239;28;21271;-91
2022/12/12 17:02:26;;;;;;;33.60;18.50;;;;;;;-4.34;100.00;95695.69;5106902;28;20582;-94
2022/12/12 22:03:13;;;;;;;44.42;21.17;;;;;;;-7.69;100.00;95687.59;4973029;28;20058;-91
2022/12/12 22:07:19;;;;;;;41.13;20.60;;;;;;;-7.69;100.00;95689.31;4966946;28;20121;-91
2022/12/12 22:15:00;;;;;;;40.42;19.15;;;;;;;-7.76;100.00;95683.63;4948821;28;20033;-91
2022/12/12 22:50:13;;;;;;;46.38;21.42;;;;;;;-8.03;100.00;95664.34;4733032;30;20102;-90
2022/12/12 22:54:01;;;;;;;39.95;20.67;;;;;;;-8.02;100.00;95661.72;4731966;30;20127;-91
2022/12/12 23:27:58;;;;;;;44.15;21.80;;;;;;;-8.27;100.00;95644.00;4925615;29;20526;-91
2022/12/12 23:32:07;;;;;;;47.78;21.58;;;;;;;-8.29;100.00;95638.13;4919411;29;20064;-91
2022/12/12 23:36:03;;;;;;;42.67;22.42;;;;;;;-8.40;100.00;95646.25;4899631;29;20486;-91
2022/12/12 23:43:51;;;;;;;40.97;21.27;;;;;;;-8.49;100.00;95633.84;4884130;29;20135;-91
2022/12/12 23:48:19;;;;;;;43.10;21.00;;;;;;;-8.39;100.00;95637.69;4895972;29;21241;-91
2022/12/12 23:52:20;;;;;;;46.78;21.30;;;;;;;-8.38;100.00;95628.34;4802177;29;20096;-91
